createdAt,value
2022-08-11T00:01:10.608Z,22.10
2022-08-11T00:03:45.415Z,22.00
2022-08-11T00:06:15.058Z,21.90
2022-08-11T00:08:44.422Z,21.90
2022-08-11T00:11:17.296Z,21.80
2022-08-11T00:13:50.625Z,21.70
2022-08-11T00:16:20.925Z,21.70
2022-08-11T00:18:52.448Z,21.60
2022-08-11T00:22:02.068Z,21.60
2022-08-11T00:24:12.273Z,21.50
2022-08-11T00:26:40.546Z,21.40
2022-08-11T00:29:10.943Z,21.40
2022-08-11T00:31:44.620Z,21.30
2022-08-11T00:34:14.805Z,21.30
2022-08-11T00:36:48.317Z,21.20
2022-08-11T00:39:18.739Z,21.20
2022-08-11T00:42:04.129Z,21.10
2022-08-11T00:44:44.458Z,21.00
2022-08-11T00:47:22.561Z,20.90
2022-08-11T00:50:03.635Z,20.90
2022-08-11T00:52:46.192Z,20.80
2022-08-11T00:55:56.439Z,20.80
2022-08-11T00:59:34.357Z,20.70
2022-08-11T01:02:30.650Z,20.70
2022-08-11T01:05:40.204Z,20.60
2022-08-11T01:08:37.946Z,20.60
2022-08-11T01:11:28.613Z,20.50
2022-08-11T01:14:34.836Z,20.50
2022-08-11T01:17:43.134Z,20.40
2022-08-11T01:20:47.504Z,20.30
2022-08-11T01:24:11.040Z,20.20
2022-08-11T01:27:18.921Z,20.20
2022-08-11T01:30:23.587Z,20.20
2022-08-11T01:33:39.777Z,20.20
2022-08-11T01:36:41.144Z,20.20
2022-08-11T01:39:39.626Z,20.20
2022-08-11T01:43:00.639Z,20.20
2022-08-11T01:45:39.638Z,20.10
2022-08-11T01:48:15.857Z,20.00
2022-08-11T01:50:59.019Z,20.00
2022-08-11T01:53:40.075Z,19.90
2022-08-11T01:56:28.878Z,19.80
2022-08-11T01:59:09.393Z,19.80
2022-08-11T02:01:58.532Z,19.70
2022-08-11T02:04:34.356Z,19.70
2022-08-11T02:07:14.815Z,19.70
2022-08-11T02:09:53.136Z,19.60
2022-08-11T02:12:42.107Z,19.60
2022-08-11T02:15:23.306Z,19.60
2022-08-11T02:18:00.610Z,19.60
2022-08-11T02:20:53.937Z,19.60
2022-08-11T02:24:04.404Z,19.50
2022-08-11T02:26:40.767Z,19.50
2022-08-11T02:29:18.207Z,19.50
2022-08-11T02:32:33.774Z,19.40
2022-08-11T02:35:22.941Z,19.40
2022-08-11T02:38:03.900Z,19.30
2022-08-11T02:40:39.841Z,19.20
2022-08-11T02:43:15.122Z,19.20
2022-08-11T02:45:58.191Z,19.10
2022-08-11T02:49:10.042Z,19.10
2022-08-11T02:51:53.938Z,19.00
2022-08-11T02:54:27.667Z,19.00
2022-08-11T02:57:05.258Z,19.00
2022-08-11T02:59:53.900Z,19.10
2022-08-11T03:03:10.242Z,19.10
2022-08-11T03:05:54.225Z,19.00
2022-08-11T03:08:36.938Z,18.90
2022-08-11T03:11:31.105Z,18.80
2022-08-11T03:14:28.765Z,18.80
2022-08-11T03:17:03.789Z,18.70
2022-08-11T03:19:44.345Z,18.70
2022-08-11T03:22:23.194Z,18.60
2022-08-11T03:24:59.197Z,18.60
2022-08-11T03:27:38.954Z,18.50
2022-08-11T03:30:13.294Z,18.50
2022-08-11T03:33:13.050Z,18.40
2022-08-11T03:35:52.843Z,18.40
2022-08-11T03:38:30.625Z,18.40
2022-08-11T03:42:03.116Z,18.40
2022-08-11T03:44:43.210Z,18.30
2022-08-11T03:47:27.198Z,18.30
2022-08-11T03:50:04.879Z,18.20
2022-08-11T03:52:49.383Z,18.20
2022-08-11T03:55:29.304Z,18.20
2022-08-11T03:58:42.090Z,18.20
2022-08-11T04:01:50.220Z,18.10
2022-08-11T04:05:11.224Z,18.10
2022-08-11T04:08:08.017Z,18.10
2022-08-11T04:11:10.075Z,18.00
2022-08-11T04:14:30.913Z,18.00
2022-08-11T04:17:25.232Z,18.00
2022-08-11T04:20:19.970Z,18.00
2022-08-11T04:24:34.972Z,18.00
2022-08-11T04:26:51.550Z,18.00
2022-08-11T04:30:02.182Z,18.00
2022-08-11T04:32:43.624Z,18.00
2022-08-11T04:35:35.857Z,18.00
2022-08-11T04:38:43.846Z,18.00
2022-08-11T04:42:12.426Z,18.00
2022-08-11T04:45:25.777Z,18.10
2022-08-11T04:48:32.908Z,18.60
2022-08-11T04:51:41.688Z,19.10
2022-08-11T04:54:46.589Z,19.80
2022-08-11T04:57:44.041Z,20.60
2022-08-11T05:00:31.575Z,21.40
2022-08-11T05:03:38.234Z,22.20
2022-08-11T05:06:29.790Z,23.00
2022-08-11T05:09:27.071Z,23.80
2022-08-11T05:12:10.794Z,24.40
2022-08-11T05:15:04.672Z,25.10
2022-08-11T05:17:57.002Z,25.70
2022-08-11T05:20:45.196Z,26.30
2022-08-11T05:23:31.410Z,27.00
2022-08-11T05:26:46.455Z,27.60
2022-08-11T05:29:45.943Z,28.20
2022-08-11T05:32:35.342Z,28.90
2022-08-11T05:35:07.529Z,29.40
2022-08-11T05:37:42.210Z,30.00
2022-08-11T05:40:30.294Z,30.50
2022-08-11T05:43:20.082Z,31.00
2022-08-11T05:46:15.658Z,31.60
2022-08-11T05:49:02.640Z,32.10
2022-08-11T05:51:55.327Z,32.40
2022-08-11T05:54:42.010Z,32.80
2022-08-11T05:57:10.671Z,33.20
2022-08-11T06:00:03.274Z,33.60
2022-08-11T06:02:32.108Z,34.10
2022-08-11T06:05:02.356Z,34.40
2022-08-11T06:07:48.963Z,34.80
2022-08-11T06:10:27.992Z,35.10
2022-08-11T06:12:56.765Z,35.50
2022-08-11T06:15:27.934Z,35.90
2022-08-11T06:17:56.875Z,36.20
2022-08-11T06:20:26.206Z,36.50
2022-08-11T06:22:59.682Z,36.80
2022-08-11T06:25:32.864Z,37.30
2022-08-11T06:28:01.741Z,37.60
2022-08-11T06:30:40.632Z,37.90
2022-08-11T06:33:12.429Z,38.20
2022-08-11T06:35:49.877Z,38.40
2022-08-11T06:38:35.061Z,38.70
2022-08-11T06:41:25.600Z,39.00
2022-08-11T06:44:05.210Z,39.30
2022-08-11T06:46:38.912Z,39.60
2022-08-11T06:49:29.154Z,39.80
2022-08-11T06:52:00.581Z,40.10
2022-08-11T06:54:31.930Z,40.30
2022-08-11T06:57:29.759Z,40.60
2022-08-11T07:00:28.819Z,40.70
2022-08-11T07:03:01.748Z,40.70
2022-08-11T07:05:43.687Z,40.80
2022-08-11T07:09:06.117Z,41.00
2022-08-11T07:12:15.011Z,41.40
2022-08-11T07:15:07.473Z,41.70
2022-08-11T07:17:43.539Z,41.90
2022-08-11T07:20:32.403Z,42.20
2022-08-11T07:23:21.482Z,42.50
2022-08-11T07:26:10.851Z,42.70
2022-08-11T07:28:57.825Z,42.90
2022-08-11T07:31:32.372Z,43.10
2022-08-11T07:34:22.890Z,43.50
2022-08-11T07:36:57.149Z,43.50
2022-08-11T07:39:27.577Z,43.50
2022-08-11T07:41:58.425Z,43.40
2022-08-11T07:44:34.403Z,43.50
2022-08-11T07:47:20.848Z,43.70
2022-08-11T07:50:09.255Z,43.60
2022-08-11T07:52:40.573Z,43.30
2022-08-11T07:55:13.280Z,43.20
2022-08-11T07:58:15.349Z,43.10
2022-08-11T08:01:10.514Z,43.10
2022-08-11T08:04:07.240Z,43.20
2022-08-11T08:06:54.224Z,43.40
2022-08-11T08:09:42.038Z,43.80
2022-08-11T08:12:28.325Z,44.00
2022-08-11T08:15:14.800Z,44.20
2022-08-11T08:18:09.745Z,44.40
2022-08-11T08:20:41.420Z,44.60
2022-08-11T08:23:10.312Z,44.80
2022-08-11T08:25:41.352Z,45.10
2022-08-11T08:28:13.886Z,45.40
2022-08-11T08:30:47.407Z,45.40
2022-08-11T08:33:18.307Z,45.60
2022-08-11T08:35:54.397Z,45.60
2022-08-11T08:38:24.343Z,45.60
2022-08-11T08:40:56.395Z,45.40
2022-08-11T08:43:26.107Z,45.40
2022-08-11T08:45:57.149Z,45.30
2022-08-11T08:48:27.323Z,45.40
2022-08-11T08:51:18.985Z,45.80
2022-08-11T08:53:56.510Z,46.00
2022-08-11T08:56:30.104Z,46.30
2022-08-11T08:59:00.480Z,46.60
2022-08-11T09:01:31.052Z,46.60
2022-08-11T09:04:04.904Z,46.70
2022-08-11T09:06:39.943Z,46.70
2022-08-11T09:09:09.181Z,46.80
2022-08-11T09:11:53.366Z,47.10
2022-08-11T09:14:23.584Z,47.40
2022-08-11T09:16:53.440Z,47.70
2022-08-11T09:19:22.483Z,48.00
2022-08-11T09:22:12.398Z,47.90
2022-08-11T09:24:59.150Z,47.90
2022-08-11T09:27:29.230Z,47.90
2022-08-11T09:29:57.462Z,48.30
2022-08-11T09:32:26.604Z,48.60
2022-08-11T09:34:55.631Z,48.60
2022-08-11T09:37:54.028Z,48.50
2022-08-11T09:40:32.451Z,48.50
2022-08-11T09:43:23.617Z,48.80
2022-08-11T09:45:54.090Z,49.00
2022-08-11T09:48:25.115Z,49.20
2022-08-11T09:50:55.506Z,49.00
2022-08-11T09:53:37.238Z,48.80
2022-08-11T09:56:29.573Z,48.50
2022-08-11T09:58:59.688Z,47.90
2022-08-11T10:01:31.508Z,47.30
2022-08-11T10:04:04.797Z,47.70
2022-08-11T10:06:54.168Z,48.20
2022-08-11T10:09:25.259Z,48.80
2022-08-11T10:11:57.885Z,49.60
2022-08-11T10:14:46.260Z,49.80
2022-08-11T10:17:16.218Z,50.40
2022-08-11T10:20:03.992Z,50.90
2022-08-11T10:22:51.878Z,51.50
2022-08-11T10:25:37.934Z,51.80
2022-08-11T10:28:28.775Z,52.20
2022-08-11T10:31:16.936Z,52.50
2022-08-11T10:34:02.081Z,53.00
2022-08-11T10:36:32.122Z,53.20
2022-08-11T10:39:02.081Z,52.80
2022-08-11T10:42:06.625Z,52.00
2022-08-11T10:44:40.327Z,50.70
2022-08-11T10:47:30.502Z,49.20
2022-08-11T10:50:17.090Z,48.00
2022-08-11T10:53:06.417Z,47.10
2022-08-11T10:55:53.526Z,46.50
2022-08-11T10:58:40.696Z,46.00
2022-08-11T11:01:09.477Z,45.70
2022-08-11T11:03:39.462Z,45.30
2022-08-11T11:06:28.375Z,44.90
2022-08-11T11:09:05.321Z,44.30
2022-08-11T11:12:04.473Z,43.50
2022-08-11T11:14:56.379Z,42.60
2022-08-11T11:17:47.766Z,41.50
2022-08-11T11:20:36.224Z,40.50
2022-08-11T11:23:11.147Z,39.30
2022-08-11T11:26:10.698Z,38.30
2022-08-11T11:28:55.467Z,37.40
2022-08-11T11:31:34.527Z,36.70
2022-08-11T11:34:21.798Z,36.20
2022-08-11T11:36:54.657Z,35.80
2022-08-11T11:39:24.723Z,35.30
2022-08-11T11:41:55.555Z,35.00
2022-08-11T11:44:25.065Z,34.70
2022-08-11T11:47:12.527Z,34.60
2022-08-11T11:49:43.948Z,34.70
2022-08-11T11:52:21.129Z,34.60
2022-08-11T11:54:56.459Z,34.40
2022-08-11T11:57:59.389Z,34.30
2022-08-11T12:00:49.308Z,34.20
2022-08-11T12:03:18.306Z,34.20
2022-08-11T12:05:46.886Z,34.10
2022-08-11T12:08:17.233Z,34.00
2022-08-11T12:10:48.364Z,34.00
2022-08-11T12:13:35.987Z,33.80
2022-08-11T12:16:35.015Z,33.70
2022-08-11T12:18:56.294Z,33.70
2022-08-11T12:21:25.693Z,33.60
2022-08-11T12:24:14.832Z,33.60
2022-08-11T12:27:16.149Z,33.60
2022-08-11T12:29:52.850Z,33.80
2022-08-11T12:32:25.320Z,34.10
2022-08-11T12:34:53.638Z,34.20
2022-08-11T12:37:26.345Z,34.10
2022-08-11T12:40:43.008Z,34.10
2022-08-11T12:43:38.049Z,34.10
2022-08-11T12:46:09.928Z,33.90
2022-08-11T12:49:02.787Z,33.80
2022-08-11T12:52:12.371Z,33.70
2022-08-11T12:54:46.990Z,33.70
2022-08-11T12:57:37.966Z,33.60
2022-08-11T13:00:25.749Z,33.60
2022-08-11T13:03:12.648Z,33.60
2022-08-11T13:05:44.601Z,33.50
2022-08-11T13:08:14.881Z,33.50
2022-08-11T13:10:57.355Z,33.40
2022-08-11T13:13:54.418Z,33.60
2022-08-11T13:16:15.859Z,33.70
2022-08-11T13:18:44.818Z,33.90
2022-08-11T13:21:20.154Z,34.00
2022-08-11T13:24:00.538Z,33.90
2022-08-11T13:26:43.577Z,33.90
2022-08-11T13:29:21.806Z,33.80
2022-08-11T13:31:50.755Z,33.80
2022-08-11T13:34:20.351Z,33.70
2022-08-11T13:36:51.822Z,33.60
2022-08-11T13:39:20.483Z,33.50
2022-08-11T13:41:49.320Z,33.50
2022-08-11T13:44:25.232Z,33.40
2022-08-11T13:46:56.224Z,33.40
2022-08-11T13:49:24.721Z,33.40
2022-08-11T13:51:55.202Z,33.40
2022-08-11T13:54:26.325Z,33.40
2022-08-11T13:56:56.671Z,33.50
2022-08-11T13:59:29.667Z,33.60
2022-08-11T14:02:21.524Z,33.60
2022-08-11T14:04:55.355Z,33.60
2022-08-11T14:07:25.606Z,33.60
2022-08-11T14:09:59.218Z,33.60
2022-08-11T14:12:47.759Z,33.60
2022-08-11T14:15:20.721Z,33.50
2022-08-11T14:17:53.402Z,33.50
2022-08-11T14:20:39.423Z,33.60
2022-08-11T14:23:12.272Z,33.60
2022-08-11T14:26:03.670Z,33.60
2022-08-11T14:28:41.519Z,33.60
2022-08-11T14:31:15.321Z,33.50
2022-08-11T14:34:00.288Z,33.60
2022-08-11T14:36:32.000Z,33.60
2022-08-11T14:39:01.805Z,33.60
2022-08-11T14:42:11.519Z,33.60
2022-08-11T14:44:55.984Z,33.70
2022-08-11T14:47:26.687Z,33.70
2022-08-11T14:50:01.851Z,33.70
2022-08-11T14:52:39.294Z,33.70
2022-08-11T14:55:27.280Z,33.60
2022-08-11T14:57:57.401Z,33.60
2022-08-11T15:00:26.585Z,33.50
2022-08-11T15:03:11.232Z,33.50
2022-08-11T15:05:52.385Z,33.40
2022-08-11T15:08:46.270Z,33.40
2022-08-11T15:11:29.477Z,33.50
2022-08-11T15:14:00.492Z,33.50
2022-08-11T15:16:46.952Z,33.40
2022-08-11T15:19:19.497Z,33.40
2022-08-11T15:22:05.292Z,33.40
2022-08-11T15:24:35.408Z,33.40
2022-08-11T15:27:28.215Z,33.30
2022-08-11T15:30:32.201Z,33.30
2022-08-11T15:33:19.986Z,33.40
2022-08-11T15:36:07.816Z,33.30
2022-08-11T15:38:40.384Z,33.30
2022-08-11T15:41:28.564Z,33.20
2022-08-11T15:44:15.093Z,33.20
2022-08-11T15:46:48.590Z,33.20
2022-08-11T15:49:23.865Z,33.20
2022-08-11T15:52:02.289Z,33.20
2022-08-11T15:54:33.069Z,33.10
2022-08-11T15:57:03.116Z,33.10
2022-08-11T15:59:52.972Z,33.10
2022-08-11T16:02:41.312Z,33.10
2022-08-11T16:05:13.645Z,33.00
2022-08-11T16:08:03.889Z,32.90
2022-08-11T16:10:34.026Z,32.90
2022-08-11T16:13:21.666Z,32.90
2022-08-11T16:16:24.770Z,32.90
2022-08-11T16:18:56.495Z,32.80
2022-08-11T16:21:35.125Z,32.70
2022-08-11T16:24:08.937Z,32.60
2022-08-11T16:27:08.362Z,32.60
2022-08-11T16:29:42.789Z,32.70
2022-08-11T16:32:20.440Z,32.70
2022-08-11T16:35:09.390Z,32.60
2022-08-11T16:37:56.368Z,32.70
2022-08-11T16:40:26.270Z,32.60
2022-08-11T16:43:13.891Z,32.50
2022-08-11T16:46:00.909Z,32.50
2022-08-11T16:48:37.146Z,32.50
2022-08-11T16:51:07.103Z,32.50
2022-08-11T16:54:00.028Z,32.40
2022-08-11T16:56:30.502Z,32.40
2022-08-11T16:59:17.588Z,32.30
2022-08-11T17:01:52.960Z,32.20
2022-08-11T17:04:45.822Z,32.20
2022-08-11T17:07:42.409Z,32.10
2022-08-11T17:10:51.076Z,32.10
2022-08-11T17:13:27.365Z,32.00
2022-08-11T17:16:07.786Z,31.90
2022-08-11T17:18:43.311Z,31.90
2022-08-11T17:21:17.493Z,31.80
2022-08-11T17:23:50.169Z,31.70
2022-08-11T17:26:24.226Z,31.60
2022-08-11T17:28:57.965Z,31.60
2022-08-11T17:31:46.025Z,31.60
2022-08-11T17:34:32.400Z,31.50
2022-08-11T17:37:01.032Z,31.40
2022-08-11T17:39:32.540Z,31.30
2022-08-11T17:42:19.239Z,31.20
2022-08-11T17:45:07.622Z,31.20
2022-08-11T17:47:54.280Z,31.10
2022-08-11T17:50:23.115Z,31.00
2022-08-11T17:53:09.907Z,31.00
2022-08-11T17:55:58.087Z,30.90
2022-08-11T17:58:44.993Z,30.80
2022-08-11T18:01:15.568Z,30.70
2022-08-11T18:03:56.369Z,30.70
2022-08-11T18:06:34.474Z,30.60
2022-08-11T18:09:23.880Z,30.50
2022-08-11T18:12:13.029Z,30.40
2022-08-11T18:15:02.541Z,30.30
2022-08-11T18:17:50.152Z,30.30
2022-08-11T18:20:36.638Z,30.20
2022-08-11T18:23:45.531Z,30.10
2022-08-11T18:26:33.634Z,30.00
2022-08-11T18:29:19.464Z,29.90
2022-08-11T18:32:08.120Z,29.80
2022-08-11T18:34:59.005Z,29.70
2022-08-11T18:37:48.971Z,29.60
2022-08-11T18:40:38.401Z,29.50
2022-08-11T18:43:28.970Z,29.40
2022-08-11T18:46:21.079Z,29.30
2022-08-11T18:49:15.477Z,29.30
2022-08-11T18:52:06.415Z,29.10
2022-08-11T18:54:55.329Z,29.00
2022-08-11T18:57:53.991Z,28.90
2022-08-11T19:00:41.462Z,28.80
2022-08-11T19:03:29.644Z,28.70
2022-08-11T19:06:38.716Z,28.60
2022-08-11T19:09:28.419Z,28.50
2022-08-11T19:12:15.425Z,28.40
2022-08-11T19:15:03.589Z,28.30
2022-08-11T19:17:51.123Z,28.20
2022-08-11T19:20:39.889Z,28.10
2022-08-11T19:23:28.330Z,28.00
2022-08-11T19:26:16.482Z,27.90
2022-08-11T19:29:05.149Z,27.90
2022-08-11T19:31:52.218Z,27.80
2022-08-11T19:34:39.649Z,27.80
2022-08-11T19:37:27.167Z,27.70
2022-08-11T19:40:13.628Z,27.60
2022-08-11T19:43:03.130Z,27.60
2022-08-11T19:45:52.204Z,27.50
2022-08-11T19:48:40.705Z,27.50
2022-08-11T19:51:28.227Z,27.40
2022-08-11T19:54:14.296Z,27.30
2022-08-11T19:57:01.366Z,27.30
2022-08-11T19:59:49.671Z,27.20
2022-08-11T20:02:35.619Z,27.20
2022-08-11T20:05:21.206Z,27.10
2022-08-11T20:08:08.161Z,27.00
2022-08-11T20:10:55.675Z,27.00
2022-08-11T20:13:45.461Z,26.90
2022-08-11T20:16:37.043Z,26.80
2022-08-11T20:19:26.216Z,26.80
2022-08-11T20:22:30.752Z,26.70
2022-08-11T20:25:16.721Z,26.70
2022-08-11T20:28:03.267Z,26.60
2022-08-11T20:30:51.949Z,26.60
2022-08-11T20:33:41.282Z,26.50
2022-08-11T20:36:29.529Z,26.50
2022-08-11T20:39:17.430Z,26.40
2022-08-11T20:42:05.312Z,26.30
2022-08-11T20:44:52.051Z,26.30
2022-08-11T20:50:47.237Z,26.20
2022-08-11T20:53:35.877Z,26.10
2022-08-11T20:56:28.327Z,26.10
2022-08-11T20:59:18.280Z,26.10
2022-08-11T21:02:05.274Z,26.10
2022-08-11T21:04:56.191Z,26.10
2022-08-11T21:07:56.946Z,26.10
2022-08-11T21:10:47.132Z,26.10
2022-08-11T21:13:37.965Z,26.00
2022-08-11T21:16:27.257Z,26.00
2022-08-11T21:19:19.158Z,26.00
2022-08-11T21:22:27.849Z,25.90
2022-08-11T21:25:17.307Z,25.90
2022-08-11T21:28:04.944Z,25.80
2022-08-11T21:30:57.511Z,25.80
2022-08-11T21:33:45.283Z,25.80
2022-08-11T21:36:30.675Z,25.70
2022-08-11T21:39:16.992Z,25.70
2022-08-11T21:42:06.708Z,25.60
2022-08-11T21:44:52.759Z,25.50
2022-08-11T21:47:43.205Z,25.50
2022-08-11T21:50:29.977Z,25.40
2022-08-11T21:53:17.022Z,25.30
2022-08-11T21:56:03.096Z,25.30
2022-08-11T21:58:51.009Z,25.20
2022-08-11T22:01:37.544Z,25.10
2022-08-11T22:04:23.864Z,25.10
2022-08-11T22:07:09.848Z,25.00
2022-08-11T22:09:56.040Z,24.90
2022-08-11T22:12:45.053Z,24.80
2022-08-11T22:15:32.427Z,24.80
2022-08-11T22:18:19.658Z,24.70
2022-08-11T22:21:05.653Z,24.70
2022-08-11T22:23:53.670Z,24.60
2022-08-11T22:26:41.292Z,24.60
2022-08-11T22:29:50.064Z,24.50
2022-08-11T22:32:35.409Z,24.50
2022-08-11T22:35:22.236Z,24.40
2022-08-11T22:38:08.897Z,24.40
2022-08-11T22:40:55.253Z,24.30
2022-08-11T22:43:40.896Z,24.30
2022-08-11T22:46:27.360Z,24.40
2022-08-11T22:49:15.100Z,24.30
2022-08-11T22:52:02.985Z,24.40
2022-08-11T22:54:50.525Z,24.40
2022-08-11T22:57:37.762Z,24.30
2022-08-11T23:00:24.619Z,24.30
2022-08-11T23:03:37.227Z,24.20
2022-08-11T23:06:24.421Z,24.20
2022-08-11T23:09:10.427Z,24.10
2022-08-11T23:12:06.586Z,24.00
2022-08-11T23:14:55.045Z,24.00
2022-08-11T23:17:41.587Z,23.90
2022-08-11T23:20:39.113Z,23.80
2022-08-11T23:23:37.241Z,23.70
2022-08-11T23:26:23.115Z,23.60
2022-08-11T23:29:08.669Z,23.60
2022-08-11T23:31:55.919Z,23.40
2022-08-11T23:35:03.430Z,23.40
2022-08-11T23:37:51.850Z,23.30
2022-08-11T23:40:38.955Z,23.30
2022-08-11T23:43:25.263Z,23.20
2022-08-11T23:46:10.719Z,23.20
2022-08-11T23:48:57.105Z,23.10
2022-08-11T23:51:44.025Z,23.10
2022-08-11T23:54:36.455Z,23.00
2022-08-11T23:57:24.097Z,23.00
